Time;durP1;ratioP1;P1;durP2;ratioP2;P2;SDS_P1;SDS_P2;PMS_P1;PMS_P2;Temp;Humidity;BMP_temperature;BMP_pressure;BME280_temperature;BME280_humidity;BME280_pressure;Samples;Min_cycle;Max_cycle;Signal;HPM_P1;HPM_P2
2023/10/18 00:00:57;;;;;;;8.07;5.70;;;;;;;18.79;39.92;93183.44;6094181;23;20244;-92
2023/10/18 00:03:25;;;;;;;9.25;6.75;;;;;;;18.78;40.02;93183.97;6091989;23;20021;-92
2023/10/18 00:05:50;;;;;;;7.22;6.28;;;;;;;18.78;39.88;93179.22;6118214;23;20021;-91
2023/10/18 00:08:17;;;;;;;6.45;5.22;;;;;;;18.78;39.87;93178.47;6092618;23;20040;-91
2023/10/18 00:10:42;;;;;;;7.55;5.65;;;;;;;18.77;39.98;93166.78;6091900;23;20498;-92
2023/10/18 00:13:08;;;;;;;7.00;5.45;;;;;;;18.79;39.71;93166.28;6093503;23;20028;-91
2023/10/18 00:15:34;;;;;;;7.60;5.65;;;;;;;18.79;39.76;93163.53;6069625;23;20022;-91
2023/10/18 00:17:59;;;;;;;7.80;5.68;;;;;;;18.76;39.93;93150.88;6092016;23;20452;-91
2023/10/18 00:20:25;;;;;;;7.57;5.93;;;;;;;18.77;40.59;93158.56;6116978;23;20028;-93
2023/10/18 00:22:51;;;;;;;7.20;5.50;;;;;;;18.75;40.14;93166.56;6093689;23;20017;-90
2023/10/18 00:25:16;;;;;;;6.20;5.05;;;;;;;18.78;39.83;93170.25;6091163;23;20101;-89
2023/10/18 00:27:42;;;;;;;6.55;5.10;;;;;;;18.77;39.88;93174.25;6117335;23;20083;-91
2023/10/18 00:30:11;;;;;;;6.63;5.05;;;;;;;18.75;39.96;93171.31;6116652;23;20057;-90
2023/10/18 00:32:40;;;;;;;6.60;5.43;;;;;;;18.74;40.00;93167.09;6092782;23;20013;-93
2023/10/18 00:35:16;;;;;;;6.75;5.07;;;;;;;18.73;39.98;93160.88;6092798;23;20061;-92
2023/10/18 00:37:42;;;;;;;6.70;5.45;;;;;;;18.74;40.00;93150.66;6119532;23;20042;-90
2023/10/18 00:40:20;;;;;;;6.07;5.22;;;;;;;18.73;39.56;93149.16;6091110;23;20081;-91
2023/10/18 00:42:46;;;;;;;6.05;4.28;;;;;;;18.74;40.09;93136.97;6096092;23;20033;-90
2023/10/18 00:45:12;;;;;;;5.97;4.38;;;;;;;18.75;39.97;93141.19;6092463;23;20069;-91
2023/10/18 00:47:37;;;;;;;6.28;4.97;;;;;;;18.75;39.76;93139.19;6115508;23;20018;-91
2023/10/18 00:50:03;;;;;;;6.45;5.00;;;;;;;18.74;39.97;93134.97;6092073;23;20231;-91
2023/10/18 00:52:30;;;;;;;8.80;5.32;;;;;;;18.74;39.89;93140.44;6117862;23;20081;-93
2023/10/18 00:54:57;;;;;;;6.75;5.38;;;;;;;18.74;39.89;93143.19;6117176;23;20077;-93
2023/10/18 00:57:24;;;;;;;7.57;4.97;;;;;;;18.73;40.02;93138.22;6092186;23;20028;-91
2023/10/18 00:59:52;;;;;;;6.65;5.40;;;;;;;18.72;40.02;93128.53;6069567;23;20429;-89
2023/10/18 01:02:19;;;;;;;7.22;5.07;;;;;;;18.72;39.94;93118.31;6091263;23;20030;-90
2023/10/18 01:04:52;;;;;;;5.38;4.55;;;;;;;18.71;39.67;93121.56;6095955;23;20014;-91
2023/10/18 01:07:20;;;;;;;5.93;4.40;;;;;;;18.74;39.86;93118.53;6119910;23;20048;-91
2023/10/18 01:09:49;;;;;;;5.30;4.40;;;;;;;18.73;39.91;93108.09;6071136;23;20045;-92
2023/10/18 01:12:15;;;;;;;5.53;4.78;;;;;;;18.72;39.89;93121.03;6094673;23;20072;-90
2023/10/18 01:14:42;;;;;;;6.10;4.63;;;;;;;18.72;39.82;93115.56;6095557;23;20084;-92
2023/10/18 01:17:08;;;;;;;5.75;4.55;;;;;;;18.72;39.60;93109.34;6092782;23;20018;-92
2023/10/18 01:19:34;;;;;;;7.88;4.40;;;;;;;18.72;39.87;93110.09;6119557;23;20014;-91
2023/10/18 01:22:00;;;;;;;5.25;3.85;;;;;;;18.73;40.01;93102.63;6095172;23;20025;-91
2023/10/18 01:24:34;;;;;;;5.20;4.10;;;;;;;18.71;40.06;93097.66;6093299;23;20018;-90
2023/10/18 01:27:02;;;;;;;7.05;4.75;;;;;;;18.72;39.64;93098.41;6119096;23;20018;-90
2023/10/18 01:29:28;;;;;;;6.32;4.13;;;;;;;18.70;40.02;93101.66;6094545;23;20483;-90
2023/10/18 01:31:54;;;;;;;6.00;4.45;;;;;;;18.69;39.74;93105.66;6117668;23;20069;-91
2023/10/18 01:34:20;;;;;;;6.68;4.90;;;;;;;18.69;39.68;93091.97;6118112;23;20024;-90
2023/10/18 01:36:46;;;;;;;4.85;4.35;;;;;;;18.69;39.87;93086.50;6071357;23;20021;-90
2023/10/18 01:39:18;;;;;;;4.72;4.03;;;;;;;18.72;39.50;93079.22;6117439;23;20101;-90
2023/10/18 01:41:46;;;;;;;5.20;3.80;;;;;;;18.69;39.71;93080.28;6096660;23;20025;-91
2023/10/18 01:44:18;;;;;;;6.47;4.85;;;;;;;18.69;39.86;93075.53;6118809;23;20025;-89
2023/10/18 01:46:46;;;;;;;7.10;4.45;;;;;;;18.70;39.72;93084.50;6072305;23;20447;-89
2023/10/18 01:49:16;;;;;;;5.68;4.30;;;;;;;18.70;39.79;93089.97;6118826;23;20014;-90
2023/10/18 01:51:44;;;;;;;4.97;4.23;;;;;;;18.68;39.87;93079.53;6118688;23;20018;-91
2023/10/18 01:54:12;;;;;;;5.47;4.10;;;;;;;18.69;39.31;93086.50;6116477;23;20018;-90
2023/10/18 01:56:38;;;;;;;4.97;4.38;;;;;;;18.68;39.64;93085.00;6095765;23;20021;-90
2023/10/18 01:59:07;;;;;;;5.47;3.85;;;;;;;18.71;39.58;93088.72;6117757;23;20018;-90
2023/10/18 02:01:35;;;;;;;5.18;3.72;;;;;;;18.70;39.56;93085.22;6094238;23;20018;-90
2023/10/18 02:04:02;;;;;;;6.25;4.15;;;;;;;18.70;39.90;93079.75;6095427;23;20346;-93
2023/10/18 02:06:28;;;;;;;4.25;3.30;;;;;;;18.68;39.79;93082.28;6142749;23;20014;-90
2023/10/18 02:08:54;;;;;;;4.38;3.53;;;;;;;18.68;39.80;93079.53;6117747;23;20014;-90
2023/10/18 02:11:20;;;;;;;4.07;3.53;;;;;;;18.67;39.71;93086.25;6094269;23;20351;-92
2023/10/18 02:13:45;;;;;;;4.18;3.70;;;;;;;18.67;39.41;93086.25;6071850;23;20327;-92
2023/10/18 02:16:19;;;;;;;4.78;3.97;;;;;;;18.65;39.60;93079.84;6068042;23;20018;-91
2023/10/18 02:18:49;;;;;;;4.95;3.25;;;;;;;18.66;39.61;93075.84;6096268;23;20466;-91
2023/10/18 02:21:15;;;;;;;4.75;3.80;;;;;;;18.66;39.68;93071.09;6070301;23;20073;-92
2023/10/18 02:23:42;;;;;;;5.47;3.80;;;;;;;18.67;39.80;93071.84;6117823;23;20010;-90
2023/10/18 02:26:30;;;;;;;4.03;3.13;;;;;;;18.68;39.72;93073.31;6094015;23;20018;-91
2023/10/18 02:28:55;;;;;;;4.40;3.40;;;;;;;18.65;39.88;93083.31;6098487;23;20014;-92
2023/10/18 02:31:24;;;;;;;4.63;3.53;;;;;;;18.67;39.68;93072.56;6092326;23;20022;-92
2023/10/18 02:33:49;;;;;;;4.53;3.40;;;;;;;18.65;39.56;93064.16;6072679;23;20006;-92
2023/10/18 02:36:21;;;;;;;3.80;3.28;;;;;;;18.63;40.00;93063.19;6117403;23;20345;-90
2023/10/18 02:38:49;;;;;;;4.15;3.50;;;;;;;18.64;39.58;93070.13;6094160;23;20021;-91
2023/10/18 02:41:29;;;;;;;5.30;3.65;;;;;;;18.63;39.37;93068.66;6117475;23;20041;-90
2023/10/18 02:43:55;;;;;;;3.70;3.20;;;;;;;18.62;39.92;93065.19;6122136;23;20014;-92
2023/10/18 02:46:23;;;;;;;3.83;3.30;;;;;;;18.65;39.55;93055.94;6091290;23;20470;-90
2023/10/18 02:48:52;;;;;;;4.57;3.28;;;;;;;18.64;39.83;93062.66;6094951;23;20010;-91
2023/10/18 02:51:22;;;;;;;4.40;3.70;;;;;;;18.63;39.75;93057.72;6093725;23;20018;-90
2023/10/18 02:53:51;;;;;;;6.10;3.13;;;;;;;18.64;39.87;93054.44;6117915;23;20045;-91
2023/10/18 02:56:20;;;;;;;4.63;3.10;;;;;;;18.62;39.73;93053.53;6093275;23;20164;-93
2023/10/18 02:58:47;;;;;;;5.57;3.47;;;;;;;18.61;39.46;93052.78;6071108;23;20022;-91
2023/10/18 03:01:14;;;;;;;4.50;3.25;;;;;;;18.62;39.63;93050.78;6116636;23;20014;-90
2023/10/18 03:03:40;;;;;;;3.30;2.90;;;;;;;18.61;39.62;93050.03;6071639;23;20018;-90
2023/10/18 03:06:12;;;;;;;3.72;3.10;;;;;;;18.60;39.40;93051.28;6093258;23;20076;-91
2023/10/18 03:08:38;;;;;;;4.25;2.78;;;;;;;18.59;40.08;93038.09;6117433;23;20085;-91
2023/10/18 03:11:05;;;;;;;3.58;3.25;;;;;;;18.60;39.58;93048.56;6116643;23;20025;-91
2023/10/18 03:13:31;;;;;;;3.38;2.80;;;;;;;18.61;39.75;93039.09;6094527;23;20081;-91
2023/10/18 03:16:04;;;;;;;4.88;2.97;;;;;;;18.60;39.49;93029.41;6117455;23;20033;-90
2023/10/18 03:18:30;;;;;;;4.18;3.10;;;;;;;18.61;39.37;93024.66;6117530;23;20024;-91
2023/10/18 03:20:57;;;;;;;3.28;2.67;;;;;;;18.61;39.61;93022.66;6069908;23;20017;-92
2023/10/18 03:23:26;;;;;;;5.93;2.80;;;;;;;18.63;39.31;93024.84;6067918;23;20057;-91
2023/10/18 03:26:03;;;;;;;3.67;3.05;;;;;;;18.60;39.81;93029.41;6094330;23;20010;-91
2023/10/18 03:28:35;;;;;;;8.15;6.43;;;;;;;18.56;39.63;93019.97;6119027;23;20018;-91
2023/10/18 03:31:12;;;;;;;12.00;6.18;;;;;;;18.58;39.46;93007.25;6119556;23;20033;-92
2023/10/18 03:33:37;;;;;;;4.18;2.83;;;;;;;18.62;39.50;93012.44;6113506;23;20009;-90
2023/10/18 03:36:25;;;;;;;8.93;4.55;;;;;;;18.62;39.41;93015.19;6139770;23;20013;-91
2023/10/18 03:41:43;;;;;;;20.27;12.80;;;;;;;18.63;39.74;92997.47;6072087;23;20101;-93
2023/10/18 03:44:13;;;;;;;9.32;7.00;;;;;;;18.66;39.68;93004.66;6086026;23;20018;-92
2023/10/18 03:46:39;;;;;;;13.10;8.05;;;;;;;18.70;39.45;92999.63;6090397;23;20026;-94
2023/10/18 03:49:10;;;;;;;18.25;11.10;;;;;;;18.67;39.41;93000.66;6058434;23;20022;-95
2023/10/18 03:51:39;;;;;;;23.60;11.73;;;;;;;18.64;39.62;93004.44;6068003;23;20050;-93
2023/10/18 03:54:09;;;;;;;26.02;14.15;;;;;;;18.62;39.35;93004.25;6061567;23;20026;-91
2023/10/18 03:56:37;;;;;;;21.58;13.45;;;;;;;18.64;39.34;92996.97;6095069;23;20654;-91
2023/10/18 03:59:20;;;;;;;19.00;11.77;;;;;;;18.64;39.51;92993.47;6093372;23;20018;-93
2023/10/18 04:04:36;;;;;;;20.40;12.20;;;;;;;18.64;39.33;92996.22;6089142;23;20025;-89
2023/10/18 04:07:16;;;;;;;19.70;12.63;;;;;;;18.64;39.67;92999.69;6041525;23;20525;-92
2023/10/18 04:09:50;;;;;;;16.00;10.48;;;;;;;18.63;39.74;92990.00;6041315;23;20403;-91
2023/10/18 04:12:19;;;;;;;37.17;12.50;;;;;;;18.75;38.95;92994.06;6085098;23;20099;-89
2023/10/18 04:14:58;;;;;;;18.85;9.73;;;;;;;18.65;37.98;92987.47;6086772;23;20022;-90
2023/10/18 04:17:36;;;;;;;38.92;14.30;;;;;;;18.49;38.28;92988.47;6089318;23;20324;-91
2023/10/18 04:20:15;;;;;;;54.88;20.55;;;;;;;18.48;37.37;92987.00;6093256;23;20018;-92
2023/10/18 04:22:46;;;;;;;51.30;18.70;;;;;;;18.49;37.22;92980.25;6057978;23;20030;-94
2023/10/18 04:25:15;;;;;;;29.05;11.93;;;;;;;18.51;38.30;92980.47;6081155;23;20038;-91
2023/10/18 04:27:44;;;;;;;30.63;15.25;;;;;;;18.52;38.28;92973.00;6088365;23;20198;-92
2023/10/18 04:30:22;;;;;;;38.42;16.00;;;;;;;18.54;38.65;92976.69;6069389;23;20029;-92
2023/10/18 04:32:54;;;;;;;31.10;14.43;;;;;;;18.56;38.30;92971.44;6091143;23;20030;-91
2023/10/18 04:35:25;;;;;;;35.15;15.15;;;;;;;18.56;38.44;92967.97;6088709;23;20018;-90
2023/10/18 04:37:53;;;;;;;30.20;16.48;;;;;;;18.58;37.89;92976.41;6090843;23;20312;-90
2023/10/18 04:40:22;;;;;;;32.53;15.88;;;;;;;18.53;37.55;92979.97;6090358;23;20022;-93
2023/10/18 04:42:50;;;;;;;49.78;29.67;;;;;;;18.56;37.81;92981.66;6066481;23;20033;-89
2023/10/18 04:45:16;;;;;;;42.10;22.27;;;;;;;18.68;38.32;92980.22;6063764;23;20023;-93
2023/10/18 04:47:43;;;;;;;32.67;16.60;;;;;;;18.64;37.98;92977.06;6094828;23;20029;-89
2023/10/18 04:50:18;;;;;;;29.02;16.98;;;;;;;18.61;38.36;92973.38;6064888;23;20023;-91
2023/10/18 04:52:47;;;;;;;32.22;18.00;;;;;;;18.58;38.05;92971.66;6086245;23;20106;-90
2023/10/18 04:55:14;;;;;;;35.67;18.92;;;;;;;18.58;38.14;92968.94;6074598;23;20045;-91
2023/10/18 04:57:41;;;;;;;45.90;22.77;;;;;;;18.58;38.25;92966.19;6063110;23;20022;-92
2023/10/18 05:00:24;;;;;;;46.05;22.05;;;;;;;18.59;38.40;92966.94;6084686;23;20029;-92
2023/10/18 05:02:52;;;;;;;41.05;22.95;;;;;;;18.59;38.27;92964.97;6064683;23;20053;-90
2023/10/18 05:05:18;;;;;;;46.72;25.48;;;;;;;18.58;38.73;92963.44;6064799;23;20030;-89
2023/10/18 05:07:47;;;;;;;63.50;28.98;;;;;;;18.60;38.17;92952.00;6065680;23;20017;-90
2023/10/18 05:10:16;;;;;;;69.32;30.83;;;;;;;18.56;37.98;92952.28;6064357;23;20525;-89
2023/10/18 05:13:01;;;;;;;62.38;29.02;;;;;;;18.58;38.25;92951.75;6086996;23;20045;-89
2023/10/18 05:15:34;;;;;;;62.20;28.00;;;;;;;18.61;38.29;92953.50;6068718;23;20026;-91
2023/10/18 05:18:14;;;;;;;55.85;27.15;;;;;;;18.63;38.65;92956.41;6088067;23;20054;-91
2023/10/18 05:23:19;;;;;;;;;;;;;;;18.66;38.57;92945.16;6063665;23;19917;-91
2023/10/18 05:25:45;;;;;;;59.17;27.30;;;;;;;18.62;38.09;92944.00;6055031;23;19923;-90
2023/10/18 05:28:15;;;;;;;60.65;28.83;;;;;;;18.60;38.56;92947.28;6042426;23;20019;-90
2023/10/18 05:41:28;;;;;;;128.45;46.50;;;;;;;18.63;38.85;92940.00;6035961;23;20026;-92
2023/10/18 05:43:58;;;;;;;114.43;42.90;;;;;;;18.68;38.39;92941.91;6037361;23;20026;-91
2023/10/18 05:46:27;;;;;;;110.10;42.78;;;;;;;18.67;38.62;92943.91;6035621;23;20022;-89
2023/10/18 05:48:57;;;;;;;118.40;42.08;;;;;;;18.65;38.53;92945.69;6035995;23;20023;-90
2023/10/18 05:51:37;;;;;;;116.40;40.70;;;;;;;18.66;38.56;92941.69;6035027;23;20027;-90
2023/10/18 05:54:04;;;;;;;109.82;44.80;;;;;;;18.68;38.55;92941.91;6041731;23;20277;-90
2023/10/18 05:56:29;;;;;;;154.13;55.03;;;;;;;18.68;38.32;92937.16;6038412;23;20139;-91
2023/10/18 05:59:22;;;;;;;147.13;57.65;;;;;;;18.68;38.46;92948.13;6036612;23;20027;-91
2023/10/18 06:01:51;;;;;;;154.50;53.20;;;;;;;18.70;38.44;92937.38;6045815;23;20128;-92
2023/10/18 06:04:26;;;;;;;154.05;56.45;;;;;;;18.80;38.17;92945.94;6042916;23;20019;-90
2023/10/18 06:06:58;;;;;;;152.55;54.38;;;;;;;18.81;38.43;92941.94;6080637;23;20027;-89
2023/10/18 06:09:32;;;;;;;141.82;55.53;;;;;;;18.83;38.33;92942.16;6044176;23;20022;-89
2023/10/18 06:12:00;;;;;;;131.85;52.90;;;;;;;18.84;38.38;92933.38;6082382;23;20019;-91
2023/10/18 06:14:33;;;;;;;128.25;50.60;;;;;;;18.87;38.40;92945.28;6020533;23;20137;-91
2023/10/18 06:17:12;;;;;;;122.43;51.03;;;;;;;18.97;38.68;92937.41;6049649;23;20023;-92
2023/10/18 06:19:39;;;;;;;110.90;50.75;;;;;;;18.95;38.63;92935.19;6016058;23;20019;-89
2023/10/18 06:24:48;;;;;;;83.53;39.13;;;;;;;18.87;38.43;92928.13;6052416;23;20078;-91
2023/10/18 06:27:16;;;;;;;89.43;40.55;;;;;;;18.86;38.45;92941.09;6038353;23;20539;-92
2023/10/18 06:29:51;;;;;;;85.32;38.25;;;;;;;18.84;38.86;92947.06;6045440;23;20063;-92
2023/10/18 06:32:22;;;;;;;98.07;41.00;;;;;;;18.87;38.67;92939.81;5989688;23;20031;-93
2023/10/18 06:34:57;;;;;;;107.05;43.95;;;;;;;18.87;38.71;92937.06;6059308;23;20529;-92
2023/10/18 06:37:24;;;;;;;116.85;43.20;;;;;;;18.86;38.81;92930.13;6054385;23;20050;-91
2023/10/18 06:39:51;;;;;;;147.63;47.00;;;;;;;18.84;39.07;92927.16;6031802;23;20082;-92
2023/10/18 06:42:18;;;;;;;129.38;48.20;;;;;;;18.84;38.93;92933.38;6029725;23;20415;-89
2023/10/18 06:44:44;;;;;;;131.85;45.75;;;;;;;18.84;38.92;92933.38;6048670;23;20462;-93
2023/10/18 06:47:13;;;;;;;118.68;45.08;;;;;;;18.87;38.74;92928.13;6035416;23;20110;-91
2023/10/18 06:49:42;;;;;;;126.78;45.25;;;;;;;18.85;39.00;92936.88;5988256;23;20023;-92
2023/10/18 06:52:09;;;;;;;104.05;41.17;;;;;;;18.86;39.00;92932.13;5988689;23;20019;-92
2023/10/18 06:54:39;;;;;;;102.47;43.53;;;;;;;18.88;39.06;92932.34;6011419;23;20034;-92
2023/10/18 06:57:20;;;;;;;97.80;40.08;;;;;;;18.86;38.86;92935.59;5990644;23;20030;-91
2023/10/18 06:59:48;;;;;;;103.15;41.50;;;;;;;18.87;39.06;92926.13;5996197;23;20570;-90
2023/10/18 07:02:14;;;;;;;127.30;46.92;;;;;;;18.89;38.78;92928.34;6011591;23;20107;-90
2023/10/18 07:04:50;;;;;;;124.45;45.15;;;;;;;18.89;39.05;92920.88;6008480;23;20149;-93
2023/10/18 07:07:22;;;;;;;127.35;46.55;;;;;;;18.91;38.99;92921.06;6013040;23;20023;-91
2023/10/18 07:09:56;;;;;;;137.70;47.28;;;;;;;18.89;39.00;92915.38;6015899;23;20031;-92
2023/10/18 07:12:44;;;;;;;133.05;51.55;;;;;;;18.93;38.97;92926.78;6031611;23;20031;-90
2023/10/18 07:15:09;;;;;;;121.60;48.05;;;;;;;18.91;38.70;92921.06;6034798;23;20026;-91
2023/10/18 07:17:37;;;;;;;98.45;36.50;;;;;;;18.77;36.22;92925.06;5991427;23;20034;-90
2023/10/18 07:20:03;;;;;;;89.70;39.67;;;;;;;18.73;36.43;92921.91;6056198;23;20062;-91
2023/10/18 07:22:45;;;;;;;104.53;39.38;;;;;;;18.79;37.02;92909.59;6016951;23;20023;-90
2023/10/18 07:25:21;;;;;;;144.90;49.95;;;;;;;18.80;37.67;92910.34;6035604;23;20034;-89
2023/10/18 07:27:47;;;;;;;131.32;55.05;;;;;;;18.92;37.94;92911.59;6047063;23;20114;-88
2023/10/18 07:30:15;;;;;;;99.88;46.33;;;;;;;18.90;38.52;92911.38;6044955;23;20031;-91
2023/10/18 07:32:42;;;;;;;105.30;49.97;;;;;;;18.90;38.52;92919.59;6055470;23;20019;-91
2023/10/18 07:35:11;;;;;;;101.20;47.38;;;;;;;18.89;38.55;92923.59;6037903;23;20023;-91
2023/10/18 07:37:41;;;;;;;110.80;50.55;;;;;;;18.90;38.73;92927.06;6048935;23;20023;-89
2023/10/18 07:40:08;;;;;;;122.20;58.33;;;;;;;18.88;38.55;92922.13;6016356;23;20038;-90
2023/10/18 07:42:41;;;;;;;133.00;63.03;;;;;;;18.94;38.53;92916.56;6025512;23;20250;-90
2023/10/18 07:45:08;;;;;;;114.55;51.92;;;;;;;18.90;37.79;92916.88;6036068;23;20026;-89
2023/10/18 07:47:37;;;;;;;74.85;32.92;;;;;;;18.82;35.98;92911.28;6050555;23;20051;-89
2023/10/18 07:50:25;;;;;;;60.45;23.58;;;;;;;18.65;35.30;92910.81;6015355;23;20019;-89
2023/10/18 07:52:54;;;;;;;37.38;16.30;;;;;;;18.66;34.89;92911.56;6031765;23;20051;-91
2023/10/18 07:55:21;;;;;;;44.22;19.70;;;;;;;18.45;34.65;92901.19;6063461;23;20046;-89
2023/10/18 07:57:49;;;;;;;27.35;14.77;;;;;;;18.38;34.66;92899.09;6064253;23;20042;-92
2023/10/18 08:00:22;;;;;;;26.45;11.20;;;;;;;18.32;34.18;92897.69;6067229;23;20042;-89
2023/10/18 08:02:48;;;;;;;29.92;11.35;;;;;;;18.29;34.95;92896.00;6050127;23;20328;-88
2023/10/18 08:05:19;;;;;;;22.95;11.70;;;;;;;18.34;35.54;92886.97;6013838;23;20023;-90
2023/10/18 08:07:49;;;;;;;;;;;;;;;18.41;35.66;92897.28;6062569;23;20022;-92
2023/10/18 08:10:19;;;;;;;45.67;22.63;;;;;;;18.42;37.40;92888.53;6064968;23;19918;-91
2023/10/18 08:12:57;;;;;;;51.53;22.60;;;;;;;18.53;35.82;92881.41;6026346;23;20757;-91
2023/10/18 08:15:22;;;;;;;58.47;26.13;;;;;;;18.52;36.82;92883.41;6021580;23;20021;-93
2023/10/18 08:17:50;;;;;;;56.65;34.03;;;;;;;18.54;37.46;92889.09;6054218;23;20026;-93
2023/10/18 08:22:55;;;;;;;46.38;26.67;;;;;;;18.55;36.17;92874.16;6050807;23;20027;-93
2023/10/18 08:25:24;;;;;;;50.92;31.85;;;;;;;18.61;36.75;92882.31;6039789;23;20097;-91
2023/10/18 08:27:52;;;;;;;40.97;27.73;;;;;;;18.63;37.67;92874.28;6047778;23;20481;-90
2023/10/18 08:33:05;;;;;;;57.78;33.75;;;;;;;18.69;37.00;92883.88;6046862;23;20530;-90
2023/10/18 08:35:34;;;;;;;50.40;29.40;;;;;;;18.74;37.57;92877.56;6014621;23;20023;-89
2023/10/18 08:38:02;;;;;;;92.95;52.90;;;;;;;18.75;37.73;92876.31;6043052;23;20022;-90
2023/10/18 08:40:31;;;;;;;114.45;68.65;;;;;;;18.76;37.65;92863.34;6053849;23;20018;-89
2023/10/18 08:43:23;;;;;;;90.70;52.67;;;;;;;18.80;36.90;92872.75;6050994;23;20607;-94
2023/10/18 08:45:50;;;;;;;93.47;55.97;;;;;;;18.79;37.21;92868.53;6076274;23;20023;-90
2023/10/18 08:48:27;;;;;;;183.20;103.80;;;;;;;18.83;37.58;92866.22;6017806;23;20021;-89
2023/10/18 08:50:56;;;;;;;206.45;112.15;;;;;;;18.88;37.29;92870.09;6031958;23;20023;-88
2023/10/18 08:53:22;;;;;;;176.88;96.65;;;;;;;18.89;37.27;92871.56;6020660;23;20015;-92
2023/10/18 08:55:51;;;;;;;186.55;101.43;;;;;;;18.90;37.19;92872.31;6054779;23;20030;-90
2023/10/18 08:58:20;;;;;;;203.95;112.18;;;;;;;18.92;37.79;92864.31;5996781;23;20027;-88
2023/10/18 09:03:24;;;;;;;187.68;103.45;;;;;;;18.91;37.49;92866.31;6020807;23;20090;-90
2023/10/18 09:06:05;;;;;;;150.52;81.95;;;;;;;18.93;38.04;92865.78;6044664;23;20086;-92
2023/10/18 09:08:38;;;;;;;152.73;88.20;;;;;;;18.91;37.79;92849.88;6048721;23;20021;-87
2023/10/18 09:11:08;;;;;;;185.88;108.75;;;;;;;18.96;37.66;92848.28;6065580;23;20383;-89
2023/10/18 09:13:37;;;;;;;144.23;83.10;;;;;;;18.94;37.69;92843.34;6070147;23;20026;-90
2023/10/18 09:16:04;;;;;;;130.07;69.78;;;;;;;18.95;38.03;92842.06;6046676;23;20054;-90
2023/10/18 09:18:30;;;;;;;116.63;72.15;;;;;;;18.96;38.21;92846.28;6045640;23;20026;-89
2023/10/18 09:21:02;;;;;;;108.43;65.43;;;;;;;18.98;37.32;92838.28;6068175;23;20022;-90
2023/10/18 09:23:30;;;;;;;100.30;60.70;;;;;;;18.98;37.72;92835.53;6075452;23;20469;-87
2023/10/18 09:26:28;;;;;;;91.88;54.67;;;;;;;19.00;37.82;92837.75;6046204;23;20352;-90
2023/10/18 09:28:47;;;;;;;94.68;57.00;;;;;;;19.05;37.49;92842.41;6069670;23;20018;-91
2023/10/18 09:31:21;;;;;;;99.28;56.03;;;;;;;19.00;37.96;92845.97;6094998;23;20030;-90
2023/10/18 09:33:49;;;;;;;90.13;55.15;;;;;;;19.01;37.98;92853.66;6074216;23;20038;-90
2023/10/18 09:36:29;;;;;;;93.47;53.88;;;;;;;19.05;37.80;92845.84;6042694;23;20527;-90
2023/10/18 09:38:55;;;;;;;82.97;47.42;;;;;;;19.07;38.02;92848.06;6038268;23;20027;-92
2023/10/18 09:41:31;;;;;;;98.63;51.05;;;;;;;19.03;37.63;92847.66;6041817;23;20495;-91
2023/10/18 09:44:00;;;;;;;62.10;39.13;;;;;;;19.00;38.68;92843.25;6048892;23;20022;-90
2023/10/18 09:46:26;;;;;;;66.57;39.00;;;;;;;19.00;38.81;92852.19;6018957;23;20027;-90
2023/10/18 09:48:51;;;;;;;86.63;47.63;;;;;;;19.00;38.49;92852.19;6048078;23;20030;-90
2023/10/18 09:51:21;;;;;;;93.18;47.28;;;;;;;19.04;38.70;92851.88;5987010;23;20493;-92
2023/10/18 09:53:53;;;;;;;140.73;51.80;;;;;;;19.03;38.48;92845.66;6031437;23;20476;-91
2023/10/18 09:56:24;;;;;;;116.40;47.03;;;;;;;19.00;38.08;92843.97;5981894;23;20071;-91
2023/10/18 09:58:51;;;;;;;96.90;43.47;;;;;;;19.02;38.73;92837.97;6029036;23;20045;-89
2023/10/18 10:01:30;;;;;;;84.00;41.40;;;;;;;19.04;38.76;92830.69;6029014;23;20033;-90
2023/10/18 10:03:57;;;;;;;92.43;43.35;;;;;;;19.04;38.47;92838.91;6029012;23;20020;-91
2023/10/18 10:06:23;;;;;;;147.05;81.43;;;;;;;19.04;38.57;92836.19;6012254;23;20484;-91
2023/10/18 10:09:11;;;;;;;91.40;41.50;;;;;;;19.06;38.65;92830.16;6007878;23;20047;-91
2023/10/18 10:11:43;;;;;;;93.05;48.08;;;;;;;19.06;38.66;92819.94;5981301;23;20031;-91
2023/10/18 10:14:12;;;;;;;162.55;67.82;;;;;;;19.05;38.79;92823.22;6028024;23;20032;-90
2023/10/18 10:16:45;;;;;;;136.13;57.92;;;;;;;19.05;38.43;92818.44;5968808;23;20024;-92
2023/10/18 10:19:11;;;;;;;101.32;41.95;;;;;;;19.07;39.34;92818.66;6028068;23;20024;-92
2023/10/18 10:21:37;;;;;;;128.02;53.83;;;;;;;19.12;38.50;92820.56;6043908;23;20419;-92
2023/10/18 10:24:29;;;;;;;119.05;50.92;;;;;;;19.12;38.73;92820.56;6065704;23;20027;-91
2023/10/18 10:26:52;;;;;;;107.70;45.13;;;;;;;19.08;39.12;92813.91;6061956;23;20050;-90
2023/10/18 10:31:57;;;;;;;85.18;42.38;;;;;;;19.10;39.02;92803.16;6062407;23;20533;-90
2023/10/18 10:34:32;;;;;;;86.15;38.65;;;;;;;19.10;39.20;92797.69;6065182;23;20209;-90
2023/10/18 10:37:06;;;;;;;76.85;39.95;;;;;;;19.11;39.09;92793.69;6041367;23;20026;-90
2023/10/18 10:39:31;;;;;;;74.90;41.38;;;;;;;19.12;38.93;92792.41;6005234;23;20086;-90
2023/10/18 10:42:08;;;;;;;69.20;40.60;;;;;;;19.15;38.57;92785.88;6041198;23;20023;-90
2023/10/18 10:45:07;;;;;;;75.07;40.88;;;;;;;19.11;39.30;92783.47;6043947;23;20460;-90
2023/10/18 10:47:42;;;;;;;58.15;36.78;;;;;;;19.12;39.29;92790.41;6064249;23;20019;-91
2023/10/18 10:50:08;;;;;;;63.45;35.72;;;;;;;19.14;38.92;92782.41;6064336;23;20049;-90
2023/10/18 10:52:35;;;;;;;71.38;37.67;;;;;;;19.10;39.18;92784.72;6039892;23;20015;-90
2023/10/18 10:55:18;;;;;;;54.05;33.67;;;;;;;19.11;39.52;92777.25;6038973;23;20019;-90
2023/10/18 10:57:45;;;;;;;54.90;33.95;;;;;;;19.12;39.46;92775.97;6016632;23;20030;-91
2023/10/18 11:00:36;;;;;;;64.97;34.60;;;;;;;19.14;39.39;92770.72;6064303;23;20018;-89
2023/10/18 11:03:24;;;;;;;63.78;36.90;;;;;;;19.14;39.41;92763.22;6064471;23;20022;-90
2023/10/18 11:05:53;;;;;;;68.53;42.22;;;;;;;19.14;39.06;92752.28;6068951;23;20023;-92
2023/10/18 11:08:19;;;;;;;94.15;50.63;;;;;;;19.14;39.58;92748.78;6062314;23;20061;-89
2023/10/18 11:10:45;;;;;;;91.25;52.30;;;;;;;19.13;39.61;92755.53;6041118;23;20042;-90
2023/10/18 11:13:13;;;;;;;98.43;55.65;;;;;;;19.13;39.42;92750.06;6066095;23;20139;-89
2023/10/18 11:15:42;;;;;;;129.23;65.82;;;;;;;19.12;39.46;92745.84;6064715;23;20220;-91
2023/10/18 11:18:20;;;;;;;151.80;82.05;;;;;;;19.16;39.19;92741.53;6038535;23;20707;-90
2023/10/18 11:21:05;;;;;;;172.93;96.80;;;;;;;19.16;39.41;92747.00;6046244;23;20038;-90
2023/10/18 11:23:33;;;;;;;168.07;88.40;;;;;;;19.18;39.46;92741.72;6066495;23;20594;-91
2023/10/18 11:26:09;;;;;;;178.95;101.00;;;;;;;19.15;39.51;92737.31;6034826;23;20029;-95
2023/10/18 11:28:37;;;;;;;202.88;110.03;;;;;;;19.16;39.86;92732.56;6041380;23;20019;-91
2023/10/18 11:31:07;;;;;;;226.30;125.80;;;;;;;19.16;39.71;92721.59;6022388;23;20054;-92
2023/10/18 11:36:18;;;;;;;234.82;138.07;;;;;;;19.18;39.15;92725.28;6067912;23;20074;-90
2023/10/18 11:39:07;;;;;;;257.40;144.07;;;;;;;19.21;39.00;92728.22;6068903;23;20047;-94
2023/10/18 11:41:34;;;;;;;264.33;138.25;;;;;;;19.17;39.04;92721.06;6049407;23;20025;-93
2023/10/18 11:44:06;;;;;;;230.38;123.72;;;;;;;19.20;39.30;92722.00;6045175;23;20049;-90
2023/10/18 11:46:46;;;;;;;192.82;104.78;;;;;;;19.20;39.51;92713.78;6019645;23;20046;-89
2023/10/18 11:49:11;;;;;;;182.98;100.22;;;;;;;19.27;39.04;92710.38;6090695;23;20019;-91
2023/10/18 11:51:44;;;;;;;202.45;103.65;;;;;;;19.23;39.48;92710.00;6067738;23;20038;-91
2023/10/18 11:54:14;;;;;;;171.20;94.30;;;;;;;19.23;39.74;92701.03;6056817;23;20018;-93
2023/10/18 11:56:39;;;;;;;170.07;90.90;;;;;;;19.26;39.43;92708.19;6069386;23;20023;-92
2023/10/18 11:59:08;;;;;;;158.57;89.47;;;;;;;19.26;39.79;92702.72;6090964;23;20026;-93
2023/10/18 12:01:45;;;;;;;143.32;83.70;;;;;;;19.24;39.73;92691.56;6081867;23;20513;-90
2023/10/18 12:04:29;;;;;;;137.70;82.40;;;;;;;19.25;40.48;92709.47;6076600;23;20018;-93
2023/10/18 12:06:56;;;;;;;159.82;89.40;;;;;;;19.24;39.59;92699.78;6063830;23;20022;-92
2023/10/18 12:09:27;;;;;;;169.27;97.75;;;;;;;19.25;39.60;92693.03;6004054;23;20590;-92